sensor_id;sensor_type;location;lat;lon;timestamp;P1;durP1;ratioP1;P2;durP2;ratioP2
10031;SDS011;5056;44.272;19.892;2022-10-04T00:00:10;2.77;;;2.57;;
10031;SDS011;5056;44.272;19.892;2022-10-04T00:02:50;4.00;;;2.87;;
10031;SDS011;5056;44.272;19.892;2022-10-04T00:05:20;3.80;;;3.17;;
10031;SDS011;5056;44.272;19.892;2022-10-04T00:07:53;4.17;;;2.97;;
10031;SDS011;5056;44.272;19.892;2022-10-04T00:10:23;3.53;;;3.00;;
10031;SDS011;5056;44.272;19.892;2022-10-04T00:12:55;3.90;;;3.30;;
10031;SDS011;5056;44.272;19.892;2022-10-04T00:15:27;3.27;;;2.97;;
10031;SDS011;5056;44.272;19.892;2022-10-04T00:18:00;3.00;;;2.73;;
10031;SDS011;5056;44.272;19.892;2022-10-04T00:23:40;5.03;;;2.17;;
10031;SDS011;5056;44.272;19.892;2022-10-04T00:29:32;2.40;;;2.20;;
10031;SDS011;5056;44.272;19.892;2022-10-04T00:35:01;3.30;;;2.17;;
10031;SDS011;5056;44.272;19.892;2022-10-04T00:40:22;2.33;;;2.13;;
10031;SDS011;5056;44.272;19.892;2022-10-04T00:42:55;3.83;;;2.40;;
10031;SDS011;5056;44.272;19.892;2022-10-04T00:45:25;2.40;;;2.20;;
10031;SDS011;5056;44.272;19.892;2022-10-04T00:47:59;2.40;;;1.97;;
10031;SDS011;5056;44.272;19.892;2022-10-04T00:50:37;2.20;;;2.00;;
10031;SDS011;5056;44.272;19.892;2022-10-04T00:53:11;3.53;;;2.33;;
10031;SDS011;5056;44.272;19.892;2022-10-04T00:55:48;3.47;;;2.13;;
10031;SDS011;5056;44.272;19.892;2022-10-04T00:58:17;2.00;;;1.90;;
10031;SDS011;5056;44.272;19.892;2022-10-04T01:00:47;2.30;;;2.20;;
10031;SDS011;5056;44.272;19.892;2022-10-04T01:03:19;2.77;;;2.37;;
10031;SDS011;5056;44.272;19.892;2022-10-04T01:05:49;3.10;;;2.80;;
10031;SDS011;5056;44.272;19.892;2022-10-04T01:08:21;5.77;;;3.10;;
10031;SDS011;5056;44.272;19.892;2022-10-04T01:10:51;4.97;;;4.03;;
10031;SDS011;5056;44.272;19.892;2022-10-04T01:13:21;3.87;;;3.53;;
10031;SDS011;5056;44.272;19.892;2022-10-04T01:15:52;4.50;;;3.90;;
10031;SDS011;5056;44.272;19.892;2022-10-04T01:18:29;5.53;;;3.70;;
10031;SDS011;5056;44.272;19.892;2022-10-04T01:20:58;4.70;;;3.63;;
10031;SDS011;5056;44.272;19.892;2022-10-04T01:23:35;5.53;;;3.87;;
10031;SDS011;5056;44.272;19.892;2022-10-04T01:26:05;4.63;;;4.13;;
10031;SDS011;5056;44.272;19.892;2022-10-04T01:28:48;4.63;;;4.00;;
10031;SDS011;5056;44.272;19.892;2022-10-04T01:31:15;3.97;;;3.17;;
10031;SDS011;5056;44.272;19.892;2022-10-04T01:33:43;2.77;;;2.57;;
10031;SDS011;5056;44.272;19.892;2022-10-04T01:36:12;2.80;;;2.60;;
10031;SDS011;5056;44.272;19.892;2022-10-04T01:38:45;3.43;;;2.30;;
10031;SDS011;5056;44.272;19.892;2022-10-04T01:41:13;6.67;;;2.93;;
10031;SDS011;5056;44.272;19.892;2022-10-04T01:43:42;2.80;;;2.60;;
10031;SDS011;5056;44.272;19.892;2022-10-04T01:46:17;2.80;;;2.53;;
10031;SDS011;5056;44.272;19.892;2022-10-04T01:48:58;4.30;;;3.67;;
10031;SDS011;5056;44.272;19.892;2022-10-04T01:51:28;4.30;;;3.00;;
10031;SDS011;5056;44.272;19.892;2022-10-04T01:54:01;9.37;;;3.50;;
10031;SDS011;5056;44.272;19.892;2022-10-04T01:56:32;4.73;;;3.57;;
10031;SDS011;5056;44.272;19.892;2022-10-04T01:59:06;3.33;;;3.03;;
10031;SDS011;5056;44.272;19.892;2022-10-04T02:01:44;3.90;;;3.33;;
10031;SDS011;5056;44.272;19.892;2022-10-04T02:04:14;3.77;;;3.07;;
10031;SDS011;5056;44.272;19.892;2022-10-04T02:06:44;2.70;;;2.50;;
10031;SDS011;5056;44.272;19.892;2022-10-04T02:09:15;4.60;;;2.80;;
10031;SDS011;5056;44.272;19.892;2022-10-04T02:11:44;4.43;;;3.03;;
10031;SDS011;5056;44.272;19.892;2022-10-04T02:14:16;3.70;;;3.30;;
10031;SDS011;5056;44.272;19.892;2022-10-04T02:16:46;6.73;;;3.90;;
10031;SDS011;5056;44.272;19.892;2022-10-04T02:19:16;5.70;;;3.30;;
10031;SDS011;5056;44.272;19.892;2022-10-04T02:21:56;4.67;;;3.50;;
10031;SDS011;5056;44.272;19.892;2022-10-04T02:24:25;4.57;;;3.37;;
10031;SDS011;5056;44.272;19.892;2022-10-04T02:26:53;3.27;;;2.70;;
10031;SDS011;5056;44.272;19.892;2022-10-04T02:29:20;3.50;;;2.60;;
10031;SDS011;5056;44.272;19.892;2022-10-04T02:31:48;4.00;;;3.30;;
10031;SDS011;5056;44.272;19.892;2022-10-04T02:34:33;5.23;;;3.30;;
10031;SDS011;5056;44.272;19.892;2022-10-04T02:37:00;4.80;;;3.30;;
10031;SDS011;5056;44.272;19.892;2022-10-04T02:47:15;2.80;;;2.60;;
10031;SDS011;5056;44.272;19.892;2022-10-04T02:49:45;3.70;;;2.50;;
10031;SDS011;5056;44.272;19.892;2022-10-04T02:52:14;2.47;;;2.27;;
10031;SDS011;5056;44.272;19.892;2022-10-04T02:54:47;3.30;;;3.00;;
10031;SDS011;5056;44.272;19.892;2022-10-04T02:57:18;3.03;;;2.80;;
10031;SDS011;5056;44.272;19.892;2022-10-04T02:59:47;3.07;;;2.80;;
10031;SDS011;5056;44.272;19.892;2022-10-04T03:05:02;3.37;;;3.07;;
10031;SDS011;5056;44.272;19.892;2022-10-04T03:07:31;5.87;;;3.40;;
10031;SDS011;5056;44.272;19.892;2022-10-04T03:09:58;4.30;;;3.37;;
10031;SDS011;5056;44.272;19.892;2022-10-04T03:12:26;3.50;;;3.20;;
10031;SDS011;5056;44.272;19.892;2022-10-04T03:14:53;4.27;;;3.40;;
10031;SDS011;5056;44.272;19.892;2022-10-04T03:17:20;3.87;;;3.37;;
10031;SDS011;5056;44.272;19.892;2022-10-04T03:19:50;3.97;;;3.20;;
10031;SDS011;5056;44.272;19.892;2022-10-04T03:22:18;4.77;;;3.13;;
10031;SDS011;5056;44.272;19.892;2022-10-04T03:24:49;3.47;;;3.17;;
10031;SDS011;5056;44.272;19.892;2022-10-04T03:27:19;3.07;;;2.87;;
10031;SDS011;5056;44.272;19.892;2022-10-04T03:29:53;3.60;;;2.73;;
10031;SDS011;5056;44.272;19.892;2022-10-04T03:32:23;5.23;;;3.50;;
10031;SDS011;5056;44.272;19.892;2022-10-04T03:34:54;5.30;;;3.37;;
10031;SDS011;5056;44.272;19.892;2022-10-04T03:37:22;4.30;;;3.33;;
10031;SDS011;5056;44.272;19.892;2022-10-04T03:39:52;3.83;;;3.47;;
10031;SDS011;5056;44.272;19.892;2022-10-04T03:42:25;4.47;;;3.20;;
10031;SDS011;5056;44.272;19.892;2022-10-04T03:44:54;4.17;;;3.17;;
10031;SDS011;5056;44.272;19.892;2022-10-04T03:47:25;3.63;;;2.50;;
10031;SDS011;5056;44.272;19.892;2022-10-04T03:49:56;3.57;;;2.90;;
10031;SDS011;5056;44.272;19.892;2022-10-04T03:52:25;3.33;;;2.60;;
10031;SDS011;5056;44.272;19.892;2022-10-04T03:54:56;3.00;;;2.70;;
10031;SDS011;5056;44.272;19.892;2022-10-04T03:57:26;3.53;;;2.20;;
10031;SDS011;5056;44.272;19.892;2022-10-04T03:59:54;4.90;;;3.27;;
10031;SDS011;5056;44.272;19.892;2022-10-04T04:02:26;5.83;;;4.30;;
10031;SDS011;5056;44.272;19.892;2022-10-04T04:07:38;6.20;;;5.27;;
10031;SDS011;5056;44.272;19.892;2022-10-04T04:10:14;5.57;;;5.03;;
10031;SDS011;5056;44.272;19.892;2022-10-04T04:12:52;4.93;;;4.43;;
10031;SDS011;5056;44.272;19.892;2022-10-04T04:15:21;5.20;;;3.83;;
10031;SDS011;5056;44.272;19.892;2022-10-04T04:17:58;5.17;;;4.07;;
10031;SDS011;5056;44.272;19.892;2022-10-04T04:20:29;4.93;;;3.80;;
10031;SDS011;5056;44.272;19.892;2022-10-04T04:23:01;6.67;;;4.57;;
10031;SDS011;5056;44.272;19.892;2022-10-04T04:25:31;5.93;;;4.00;;
10031;SDS011;5056;44.272;19.892;2022-10-04T04:28:01;5.20;;;3.60;;
10031;SDS011;5056;44.272;19.892;2022-10-04T04:30:34;7.53;;;3.80;;
10031;SDS011;5056;44.272;19.892;2022-10-04T04:33:06;6.93;;;4.17;;
10031;SDS011;5056;44.272;19.892;2022-10-04T04:35:38;5.33;;;4.33;;
10031;SDS011;5056;44.272;19.892;2022-10-04T04:38:16;6.50;;;4.50;;
10031;SDS011;5056;44.272;19.892;2022-10-04T04:40:48;5.60;;;5.07;;
10031;SDS011;5056;44.272;19.892;2022-10-04T04:43:19;8.10;;;5.90;;
10031;SDS011;5056;44.272;19.892;2022-10-04T04:45:48;11.73;;;7.63;;
10031;SDS011;5056;44.272;19.892;2022-10-04T04:48:19;14.40;;;7.93;;
10031;SDS011;5056;44.272;19.892;2022-10-04T04:50:51;10.17;;;8.63;;
10031;SDS011;5056;44.272;19.892;2022-10-04T04:53:21;7.63;;;6.63;;
10031;SDS011;5056;44.272;19.892;2022-10-04T04:55:50;7.60;;;5.73;;
10031;SDS011;5056;44.272;19.892;2022-10-04T04:58:23;9.10;;;5.83;;
10031;SDS011;5056;44.272;19.892;2022-10-04T05:00:54;7.33;;;5.57;;
10031;SDS011;5056;44.272;19.892;2022-10-04T05:03:22;9.73;;;6.23;;
10031;SDS011;5056;44.272;19.892;2022-10-04T05:05:51;7.50;;;5.60;;
10031;SDS011;5056;44.272;19.892;2022-10-04T05:08:20;8.97;;;5.40;;
10031;SDS011;5056;44.272;19.892;2022-10-04T05:10:49;8.40;;;5.30;;
10031;SDS011;5056;44.272;19.892;2022-10-04T05:13:21;6.20;;;4.97;;
10031;SDS011;5056;44.272;19.892;2022-10-04T05:15:57;9.93;;;6.10;;
10031;SDS011;5056;44.272;19.892;2022-10-04T05:18:27;10.23;;;6.20;;
10031;SDS011;5056;44.272;19.892;2022-10-04T05:20:58;9.27;;;5.90;;
10031;SDS011;5056;44.272;19.892;2022-10-04T05:23:31;7.67;;;5.87;;
10031;SDS011;5056;44.272;19.892;2022-10-04T05:26:00;9.07;;;6.47;;
10031;SDS011;5056;44.272;19.892;2022-10-04T05:28:30;8.57;;;6.70;;
10031;SDS011;5056;44.272;19.892;2022-10-04T05:31:14;10.43;;;6.37;;
10031;SDS011;5056;44.272;19.892;2022-10-04T05:33:54;7.43;;;5.53;;
10031;SDS011;5056;44.272;19.892;2022-10-04T05:36:39;7.27;;;6.43;;
10031;SDS011;5056;44.272;19.892;2022-10-04T05:39:18;7.07;;;6.17;;
10031;SDS011;5056;44.272;19.892;2022-10-04T05:41:51;9.70;;;6.50;;
10031;SDS011;5056;44.272;19.892;2022-10-04T05:44:23;8.77;;;5.40;;
10031;SDS011;5056;44.272;19.892;2022-10-04T05:46:54;8.07;;;5.40;;
10031;SDS011;5056;44.272;19.892;2022-10-04T05:49:41;6.17;;;5.20;;
10031;SDS011;5056;44.272;19.892;2022-10-04T05:52:14;6.63;;;5.07;;
10031;SDS011;5056;44.272;19.892;2022-10-04T05:54:45;9.70;;;5.60;;
10031;SDS011;5056;44.272;19.892;2022-10-04T05:58:00;8.13;;;6.40;;
10031;SDS011;5056;44.272;19.892;2022-10-04T06:00:34;8.97;;;7.73;;
10031;SDS011;5056;44.272;19.892;2022-10-04T06:03:14;13.17;;;8.33;;
10031;SDS011;5056;44.272;19.892;2022-10-04T06:05:51;9.73;;;7.37;;
10031;SDS011;5056;44.272;19.892;2022-10-04T06:08:29;8.37;;;7.37;;
10031;SDS011;5056;44.272;19.892;2022-10-04T06:11:13;7.93;;;7.13;;
10031;SDS011;5056;44.272;19.892;2022-10-04T06:16:43;14.10;;;9.83;;
10031;SDS011;5056;44.272;19.892;2022-10-04T06:19:27;12.63;;;10.67;;
10031;SDS011;5056;44.272;19.892;2022-10-04T06:22:11;16.90;;;12.07;;
10031;SDS011;5056;44.272;19.892;2022-10-04T06:24:48;12.18;;;9.98;;
10031;SDS011;5056;44.272;19.892;2022-10-04T06:27:22;8.80;;;7.82;;
10031;SDS011;5056;44.272;19.892;2022-10-04T06:29:54;9.05;;;7.45;;
10031;SDS011;5056;44.272;19.892;2022-10-04T06:35:31;6.65;;;6.00;;
10031;SDS011;5056;44.272;19.892;2022-10-04T06:38:31;6.40;;;5.65;;
10031;SDS011;5056;44.272;19.892;2022-10-04T06:47:14;6.13;;;4.25;;
10031;SDS011;5056;44.272;19.892;2022-10-04T06:49:56;7.28;;;4.82;;
10031;SDS011;5056;44.272;19.892;2022-10-04T06:52:34;6.60;;;3.90;;
10031;SDS011;5056;44.272;19.892;2022-10-04T06:55:21;5.40;;;4.30;;
10031;SDS011;5056;44.272;19.892;2022-10-04T07:01:21;5.72;;;4.13;;
10031;SDS011;5056;44.272;19.892;2022-10-04T07:04:10;6.40;;;3.92;;
10031;SDS011;5056;44.272;19.892;2022-10-04T07:06:50;4.30;;;3.60;;
10031;SDS011;5056;44.272;19.892;2022-10-04T07:09:41;5.15;;;3.55;;
10031;SDS011;5056;44.272;19.892;2022-10-04T07:12:23;4.40;;;2.67;;
10031;SDS011;5056;44.272;19.892;2022-10-04T07:14:50;6.45;;;3.17;;
10031;SDS011;5056;44.272;19.892;2022-10-04T07:17:23;6.72;;;3.30;;
10031;SDS011;5056;44.272;19.892;2022-10-04T07:19:52;4.75;;;2.83;;
10031;SDS011;5056;44.272;19.892;2022-10-04T07:22:21;4.68;;;3.20;;
10031;SDS011;5056;44.272;19.892;2022-10-04T07:25:12;3.88;;;2.70;;
10031;SDS011;5056;44.272;19.892;2022-10-04T07:27:45;4.90;;;2.72;;
10031;SDS011;5056;44.272;19.892;2022-10-04T07:30:42;2.85;;;2.42;;
10031;SDS011;5056;44.272;19.892;2022-10-04T07:33:17;3.05;;;2.20;;
10031;SDS011;5056;44.272;19.892;2022-10-04T07:35:49;4.38;;;2.50;;
10031;SDS011;5056;44.272;19.892;2022-10-04T07:38:22;3.95;;;2.78;;
10031;SDS011;5056;44.272;19.892;2022-10-04T07:41:07;3.58;;;2.80;;
10031;SDS011;5056;44.272;19.892;2022-10-04T07:43:39;5.85;;;3.38;;
10031;SDS011;5056;44.272;19.892;2022-10-04T07:46:13;5.00;;;3.25;;
10031;SDS011;5056;44.272;19.892;2022-10-04T07:48:54;4.60;;;2.80;;
10031;SDS011;5056;44.272;19.892;2022-10-04T07:51:34;5.43;;;2.95;;
10031;SDS011;5056;44.272;19.892;2022-10-04T07:54:11;4.43;;;3.10;;
10031;SDS011;5056;44.272;19.892;2022-10-04T07:56:50;4.50;;;3.28;;
10031;SDS011;5056;44.272;19.892;2022-10-04T07:59:25;3.60;;;3.17;;
10031;SDS011;5056;44.272;19.892;2022-10-04T08:02:00;4.90;;;2.70;;
10031;SDS011;5056;44.272;19.892;2022-10-04T08:04:42;3.35;;;2.80;;
10031;SDS011;5056;44.272;19.892;2022-10-04T08:07:16;4.30;;;2.90;;
10031;SDS011;5056;44.272;19.892;2022-10-04T08:09:49;4.97;;;2.70;;
10031;SDS011;5056;44.272;19.892;2022-10-04T08:12:26;3.78;;;2.50;;
10031;SDS011;5056;44.272;19.892;2022-10-04T08:15:07;4.15;;;3.00;;
10031;SDS011;5056;44.272;19.892;2022-10-04T08:17:43;7.07;;;3.13;;
10031;SDS011;5056;44.272;19.892;2022-10-04T08:26:06;4.70;;;2.75;;
10031;SDS011;5056;44.272;19.892;2022-10-04T08:28:42;4.82;;;2.92;;
10031;SDS011;5056;44.272;19.892;2022-10-04T08:31:32;5.03;;;2.97;;
10031;SDS011;5056;44.272;19.892;2022-10-04T08:36:56;3.15;;;2.85;;
10031;SDS011;5056;44.272;19.892;2022-10-04T08:39:37;3.50;;;2.63;;
10031;SDS011;5056;44.272;19.892;2022-10-04T08:42:24;3.70;;;2.67;;
10031;SDS011;5056;44.272;19.892;2022-10-04T08:48:14;6.03;;;3.13;;
10031;SDS011;5056;44.272;19.892;2022-10-04T09:03:39;2.60;;;2.40;;
10031;SDS011;5056;44.272;19.892;2022-10-04T09:06:20;6.32;;;2.58;;
10031;SDS011;5056;44.272;19.892;2022-10-04T09:12:07;4.38;;;2.92;;
10031;SDS011;5056;44.272;19.892;2022-10-04T09:15:04;4.45;;;3.20;;
10031;SDS011;5056;44.272;19.892;2022-10-04T09:17:41;5.07;;;2.45;;
10031;SDS011;5056;44.272;19.892;2022-10-04T09:20:19;3.72;;;2.70;;
10031;SDS011;5056;44.272;19.892;2022-10-04T09:22:53;3.63;;;2.50;;
10031;SDS011;5056;44.272;19.892;2022-10-04T09:28:32;4.63;;;3.00;;
10031;SDS011;5056;44.272;19.892;2022-10-04T09:31:14;3.63;;;2.80;;
10031;SDS011;5056;44.272;19.892;2022-10-04T09:34:07;3.30;;;2.20;;
10031;SDS011;5056;44.272;19.892;2022-10-04T09:36:54;4.68;;;3.03;;
10031;SDS011;5056;44.272;19.892;2022-10-04T09:42:32;4.32;;;3.05;;
10031;SDS011;5056;44.272;19.892;2022-10-04T09:45:22;2.58;;;2.38;;
10031;SDS011;5056;44.272;19.892;2022-10-04T09:48:04;4.28;;;2.42;;
10031;SDS011;5056;44.272;19.892;2022-10-04T10:02:56;3.78;;;2.10;;
10031;SDS011;5056;44.272;19.892;2022-10-04T10:08:44;6.57;;;3.28;;
10031;SDS011;5056;44.272;19.892;2022-10-04T10:11:16;4.03;;;2.80;;
10031;SDS011;5056;44.272;19.892;2022-10-04T10:14:14;4.35;;;3.15;;
10031;SDS011;5056;44.272;19.892;2022-10-04T10:17:12;4.00;;;3.00;;
10031;SDS011;5056;44.272;19.892;2022-10-04T10:22:59;3.55;;;3.15;;
10031;SDS011;5056;44.272;19.892;2022-10-04T10:25:50;4.07;;;3.58;;
10031;SDS011;5056;44.272;19.892;2022-10-04T10:28:41;4.63;;;3.22;;
10031;SDS011;5056;44.272;19.892;2022-10-04T10:31:28;6.03;;;3.38;;
10031;SDS011;5056;44.272;19.892;2022-10-04T10:34:26;4.82;;;3.10;;
10031;SDS011;5056;44.272;19.892;2022-10-04T10:40:08;4.30;;;3.03;;
10031;SDS011;5056;44.272;19.892;2022-10-04T10:45:59;3.45;;;3.15;;
10031;SDS011;5056;44.272;19.892;2022-10-04T10:48:43;4.57;;;3.78;;
10031;SDS011;5056;44.272;19.892;2022-10-04T10:51:30;3.65;;;3.35;;
10031;SDS011;5056;44.272;19.892;2022-10-04T10:54:20;6.28;;;3.95;;
10031;SDS011;5056;44.272;19.892;2022-10-04T10:57:33;3.70;;;3.15;;
10031;SDS011;5056;44.272;19.892;2022-10-04T11:00:20;5.35;;;3.80;;
10031;SDS011;5056;44.272;19.892;2022-10-04T11:03:02;7.65;;;4.93;;
10031;SDS011;5056;44.272;19.892;2022-10-04T11:12:12;5.20;;;4.28;;
10031;SDS011;5056;44.272;19.892;2022-10-04T11:24:11;5.55;;;3.08;;
10031;SDS011;5056;44.272;19.892;2022-10-04T11:26:59;6.45;;;3.38;;
10031;SDS011;5056;44.272;19.892;2022-10-04T11:38:56;2.95;;;2.63;;
10031;SDS011;5056;44.272;19.892;2022-10-04T11:41:34;3.85;;;3.13;;
10031;SDS011;5056;44.272;19.892;2022-10-04T11:47:38;9.40;;;4.65;;
10031;SDS011;5056;44.272;19.892;2022-10-04T11:53:24;3.80;;;3.20;;
10031;SDS011;5056;44.272;19.892;2022-10-04T11:56:06;5.80;;;3.72;;
10031;SDS011;5056;44.272;19.892;2022-10-04T11:58:47;3.50;;;3.20;;
10031;SDS011;5056;44.272;19.892;2022-10-04T12:01:38;3.67;;;3.20;;
10031;SDS011;5056;44.272;19.892;2022-10-04T12:07:25;3.58;;;3.03;;
10031;SDS011;5056;44.272;19.892;2022-10-04T12:10:08;3.63;;;3.20;;
10031;SDS011;5056;44.272;19.892;2022-10-04T12:12:51;5.60;;;4.28;;
10031;SDS011;5056;44.272;19.892;2022-10-04T12:15:40;4.57;;;4.15;;
10031;SDS011;5056;44.272;19.892;2022-10-04T12:18:40;6.97;;;4.20;;
10031;SDS011;5056;44.272;19.892;2022-10-04T12:21:35;3.78;;;3.47;;
10031;SDS011;5056;44.272;19.892;2022-10-04T12:24:19;3.53;;;3.22;;
10031;SDS011;5056;44.272;19.892;2022-10-04T12:30:17;3.88;;;2.97;;
10031;SDS011;5056;44.272;19.892;2022-10-04T12:32:51;7.43;;;3.40;;
10031;SDS011;5056;44.272;19.892;2022-10-04T12:35:28;7.10;;;4.47;;
10031;SDS011;5056;44.272;19.892;2022-10-04T12:38:13;4.22;;;3.70;;
10031;SDS011;5056;44.272;19.892;2022-10-04T12:40:47;9.35;;;5.60;;
10031;SDS011;5056;44.272;19.892;2022-10-04T12:43:21;49.67;;;14.02;;
10031;SDS011;5056;44.272;19.892;2022-10-04T12:46:02;10.32;;;6.00;;
10031;SDS011;5056;44.272;19.892;2022-10-04T12:48:41;4.78;;;3.60;;
10031;SDS011;5056;44.272;19.892;2022-10-04T12:51:32;4.70;;;3.45;;
10031;SDS011;5056;44.272;19.892;2022-10-04T12:54:09;4.00;;;3.38;;
10031;SDS011;5056;44.272;19.892;2022-10-04T12:56:46;3.88;;;3.08;;
10031;SDS011;5056;44.272;19.892;2022-10-04T12:59:26;3.85;;;2.88;;
10031;SDS011;5056;44.272;19.892;2022-10-04T13:02:07;4.72;;;4.03;;
10031;SDS011;5056;44.272;19.892;2022-10-04T13:04:46;6.60;;;3.53;;
10031;SDS011;5056;44.272;19.892;2022-10-04T13:07:22;7.07;;;4.25;;
10031;SDS011;5056;44.272;19.892;2022-10-04T13:10:19;7.53;;;4.30;;
10031;SDS011;5056;44.272;19.892;2022-10-04T13:13:08;6.00;;;4.97;;
10031;SDS011;5056;44.272;19.892;2022-10-04T13:15:55;8.77;;;4.45;;
10031;SDS011;5056;44.272;19.892;2022-10-04T13:18:41;9.90;;;4.78;;
10031;SDS011;5056;44.272;19.892;2022-10-04T13:21:13;7.80;;;4.00;;
10031;SDS011;5056;44.272;19.892;2022-10-04T13:23:49;5.93;;;3.90;;
10031;SDS011;5056;44.272;19.892;2022-10-04T13:26:34;5.47;;;3.53;;
10031;SDS011;5056;44.272;19.892;2022-10-04T13:29:05;6.25;;;3.67;;
10031;SDS011;5056;44.272;19.892;2022-10-04T13:31:43;5.05;;;3.20;;
10031;SDS011;5056;44.272;19.892;2022-10-04T13:34:19;5.57;;;3.05;;
10031;SDS011;5056;44.272;19.892;2022-10-04T13:36:57;3.63;;;2.90;;
10031;SDS011;5056;44.272;19.892;2022-10-04T13:42:48;3.47;;;3.17;;
10031;SDS011;5056;44.272;19.892;2022-10-04T13:48:32;5.25;;;3.88;;
10031;SDS011;5056;44.272;19.892;2022-10-04T13:54:24;3.47;;;3.17;;
10031;SDS011;5056;44.272;19.892;2022-10-04T13:57:18;4.95;;;3.40;;
10031;SDS011;5056;44.272;19.892;2022-10-04T13:59:50;4.38;;;3.40;;
10031;SDS011;5056;44.272;19.892;2022-10-04T14:05:28;4.82;;;4.15;;
10031;SDS011;5056;44.272;19.892;2022-10-04T14:08:14;5.72;;;3.67;;
10031;SDS011;5056;44.272;19.892;2022-10-04T14:17:38;3.63;;;3.33;;
10031;SDS011;5056;44.272;19.892;2022-10-04T14:26:35;4.72;;;4.25;;
10031;SDS011;5056;44.272;19.892;2022-10-04T14:29:30;6.60;;;4.60;;
10031;SDS011;5056;44.272;19.892;2022-10-04T14:35:10;4.35;;;3.95;;
10031;SDS011;5056;44.272;19.892;2022-10-04T14:37:53;5.07;;;3.88;;
10031;SDS011;5056;44.272;19.892;2022-10-04T14:44:10;4.97;;;4.25;;
10031;SDS011;5056;44.272;19.892;2022-10-04T14:47:30;5.22;;;4.50;;
10031;SDS011;5056;44.272;19.892;2022-10-04T14:50:17;5.65;;;5.03;;
10031;SDS011;5056;44.272;19.892;2022-10-04T14:52:49;5.20;;;4.47;;
10031;SDS011;5056;44.272;19.892;2022-10-04T14:55:31;6.25;;;4.60;;
10031;SDS011;5056;44.272;19.892;2022-10-04T14:58:21;5.30;;;4.80;;
10031;SDS011;5056;44.272;19.892;2022-10-04T15:01:18;5.53;;;4.95;;
10031;SDS011;5056;44.272;19.892;2022-10-04T15:03:58;6.55;;;5.10;;
10031;SDS011;5056;44.272;19.892;2022-10-04T15:10:05;7.82;;;5.90;;
10031;SDS011;5056;44.272;19.892;2022-10-04T15:15:57;6.65;;;5.28;;
10031;SDS011;5056;44.272;19.892;2022-10-04T15:18:36;6.43;;;5.18;;
10031;SDS011;5056;44.272;19.892;2022-10-04T15:21:26;6.15;;;5.47;;
10031;SDS011;5056;44.272;19.892;2022-10-04T15:24:27;7.47;;;6.40;;
10031;SDS011;5056;44.272;19.892;2022-10-04T15:29:56;7.95;;;6.72;;
10031;SDS011;5056;44.272;19.892;2022-10-04T15:32:40;8.25;;;6.43;;
10031;SDS011;5056;44.272;19.892;2022-10-04T15:35:16;6.90;;;6.07;;
10031;SDS011;5056;44.272;19.892;2022-10-04T15:37:53;8.90;;;6.95;;
10031;SDS011;5056;44.272;19.892;2022-10-04T15:40:28;8.70;;;6.85;;
10031;SDS011;5056;44.272;19.892;2022-10-04T15:46:08;10.18;;;7.70;;
10031;SDS011;5056;44.272;19.892;2022-10-04T15:49:22;10.57;;;8.27;;
10031;SDS011;5056;44.272;19.892;2022-10-04T16:01:05;10.23;;;8.35;;
10031;SDS011;5056;44.272;19.892;2022-10-04T16:03:46;14.85;;;11.52;;
10031;SDS011;5056;44.272;19.892;2022-10-04T16:06:31;14.52;;;11.50;;
10031;SDS011;5056;44.272;19.892;2022-10-04T16:09:16;16.95;;;13.18;;
10031;SDS011;5056;44.272;19.892;2022-10-04T16:12:04;15.63;;;12.65;;
10031;SDS011;5056;44.272;19.892;2022-10-04T16:17:42;18.17;;;13.65;;
10031;SDS011;5056;44.272;19.892;2022-10-04T16:20:27;18.80;;;13.45;;
10031;SDS011;5056;44.272;19.892;2022-10-04T16:25:53;17.83;;;13.90;;
10031;SDS011;5056;44.272;19.892;2022-10-04T16:28:27;18.30;;;13.88;;
10031;SDS011;5056;44.272;19.892;2022-10-04T16:37:23;16.27;;;13.70;;
10031;SDS011;5056;44.272;19.892;2022-10-04T16:40:15;23.85;;;18.63;;
10031;SDS011;5056;44.272;19.892;2022-10-04T16:42:55;20.23;;;17.08;;
10031;SDS011;5056;44.272;19.892;2022-10-04T16:55:08;11.23;;;8.73;;
10031;SDS011;5056;44.272;19.892;2022-10-04T17:07:32;11.18;;;9.98;;
10031;SDS011;5056;44.272;19.892;2022-10-04T17:10:26;16.85;;;13.57;;
10031;SDS011;5056;44.272;19.892;2022-10-04T17:13:00;19.92;;;15.38;;
10031;SDS011;5056;44.272;19.892;2022-10-04T17:15:55;20.05;;;15.73;;
10031;SDS011;5056;44.272;19.892;2022-10-04T17:18:42;17.20;;;14.65;;
10031;SDS011;5056;44.272;19.892;2022-10-04T17:21:31;21.27;;;18.97;;
10031;SDS011;5056;44.272;19.892;2022-10-04T17:24:06;20.10;;;15.50;;
10031;SDS011;5056;44.272;19.892;2022-10-04T17:26:50;18.35;;;14.48;;
10031;SDS011;5056;44.272;19.892;2022-10-04T17:29:32;15.05;;;13.00;;
10031;SDS011;5056;44.272;19.892;2022-10-04T17:35:30;21.70;;;18.13;;
10031;SDS011;5056;44.272;19.892;2022-10-04T17:38:32;23.73;;;18.77;;
10031;SDS011;5056;44.272;19.892;2022-10-04T17:41:08;26.52;;;22.02;;
10031;SDS011;5056;44.272;19.892;2022-10-04T17:44:02;28.55;;;21.58;;
10031;SDS011;5056;44.272;19.892;2022-10-04T17:46:42;30.67;;;23.02;;
10031;SDS011;5056;44.272;19.892;2022-10-04T17:49:14;23.95;;;20.15;;
10031;SDS011;5056;44.272;19.892;2022-10-04T17:52:03;28.85;;;22.45;;
10031;SDS011;5056;44.272;19.892;2022-10-04T17:54:53;31.23;;;26.50;;
10031;SDS011;5056;44.272;19.892;2022-10-04T17:57:46;32.63;;;26.98;;
10031;SDS011;5056;44.272;19.892;2022-10-04T18:00:20;30.98;;;25.90;;
10031;SDS011;5056;44.272;19.892;2022-10-04T18:02:54;23.00;;;20.25;;
10031;SDS011;5056;44.272;19.892;2022-10-04T18:05:27;24.40;;;19.40;;
10031;SDS011;5056;44.272;19.892;2022-10-04T18:07:57;28.15;;;22.75;;
10031;SDS011;5056;44.272;19.892;2022-10-04T18:24:16;17.43;;;13.30;;
10031;SDS011;5056;44.272;19.892;2022-10-04T18:26:52;18.53;;;14.10;;
10031;SDS011;5056;44.272;19.892;2022-10-04T18:29:34;23.40;;;17.10;;
10031;SDS011;5056;44.272;19.892;2022-10-04T18:32:29;24.70;;;18.13;;
10031;SDS011;5056;44.272;19.892;2022-10-04T18:35:18;30.92;;;21.83;;
10031;SDS011;5056;44.272;19.892;2022-10-04T18:37:55;29.23;;;22.23;;
10031;SDS011;5056;44.272;19.892;2022-10-04T18:40:51;25.73;;;21.50;;
10031;SDS011;5056;44.272;19.892;2022-10-04T18:46:18;19.10;;;15.80;;
10031;SDS011;5056;44.272;19.892;2022-10-04T18:48:57;16.63;;;14.20;;
10031;SDS011;5056;44.272;19.892;2022-10-04T18:54:51;15.93;;;12.65;;
10031;SDS011;5056;44.272;19.892;2022-10-04T18:57:35;19.17;;;12.73;;
10031;SDS011;5056;44.272;19.892;2022-10-04T19:00:24;11.90;;;10.57;;
10031;SDS011;5056;44.272;19.892;2022-10-04T19:03:13;12.50;;;9.13;;
10031;SDS011;5056;44.272;19.892;2022-10-04T19:05:45;10.65;;;8.02;;
10031;SDS011;5056;44.272;19.892;2022-10-04T19:08:19;11.63;;;8.57;;
10031;SDS011;5056;44.272;19.892;2022-10-04T19:10:57;9.40;;;8.40;;
10031;SDS011;5056;44.272;19.892;2022-10-04T19:13:32;8.37;;;7.47;;
10031;SDS011;5056;44.272;19.892;2022-10-04T19:16:13;9.55;;;8.07;;
10031;SDS011;5056;44.272;19.892;2022-10-04T19:27:58;10.32;;;9.23;;
10031;SDS011;5056;44.272;19.892;2022-10-04T19:30:40;12.40;;;10.32;;
10031;SDS011;5056;44.272;19.892;2022-10-04T19:33:46;11.73;;;10.27;;
10031;SDS011;5056;44.272;19.892;2022-10-04T19:36:30;11.40;;;9.43;;
10031;SDS011;5056;44.272;19.892;2022-10-04T19:42:00;13.13;;;9.57;;
10031;SDS011;5056;44.272;19.892;2022-10-04T19:44:33;14.70;;;11.73;;
10031;SDS011;5056;44.272;19.892;2022-10-04T19:47:13;15.77;;;12.43;;
10031;SDS011;5056;44.272;19.892;2022-10-04T19:49:48;20.17;;;14.57;;
10031;SDS011;5056;44.272;19.892;2022-10-04T19:52:22;18.77;;;15.20;;
10031;SDS011;5056;44.272;19.892;2022-10-04T19:54:55;16.92;;;13.38;;
10031;SDS011;5056;44.272;19.892;2022-10-04T19:57:30;15.47;;;13.50;;
10031;SDS011;5056;44.272;19.892;2022-10-04T20:00:03;18.87;;;16.80;;
10031;SDS011;5056;44.272;19.892;2022-10-04T20:02:36;25.53;;;20.63;;
10031;SDS011;5056;44.272;19.892;2022-10-04T20:05:10;26.70;;;19.83;;